Time;durP1;ratioP1;P1;durP2;ratioP2;P2;SDS_P1;SDS_P2;PMS_P1;PMS_P2;Temp;Humidity;BMP_temperature;BMP_pressure;BME280_temperature;BME280_humidity;BME280_pressure;Samples;Min_cycle;Max_cycle;Signal;HPM_P1;HPM_P2
2021/07/03 00:03:51;;;;;;;11.70;7.50;;;;;;;19.11;63.15;100252.59;10385744;28;20080;-60
2021/07/03 00:08:53;;;;;;;9.05;7.07;;;;;;;19.08;63.50;100251.13;10384278;28;20045;-59
2021/07/03 00:13:55;;;;;;;8.27;7.40;;;;;;;19.03;63.67;100251.63;10380514;28;20056;-61
2021/07/03 00:18:56;;;;;;;8.82;8.02;;;;;;;18.99;63.91;100247.63;10382452;28;20057;-61
2021/07/03 00:23:58;;;;;;;8.65;7.70;;;;;;;18.95;64.19;100243.63;10380995;28;20054;-61
2021/07/03 00:28:59;;;;;;;9.02;7.07;;;;;;;18.91;64.31;100247.69;10382058;28;20053;-61
2021/07/03 00:34:01;;;;;;;7.38;6.60;;;;;;;18.86;64.38;100258.16;10382579;28;20053;-60
2021/07/03 00:39:03;;;;;;;8.45;6.70;;;;;;;18.82;64.54;100254.13;10383662;28;20049;-61
2021/07/03 00:44:05;;;;;;;8.93;7.65;;;;;;;18.78;64.66;100244.69;10383908;28;20045;-61
2021/07/03 00:49:06;;;;;;;7.72;6.93;;;;;;;18.75;64.69;100248.59;10383092;28;20053;-61
2021/07/03 00:54:09;;;;;;;8.15;7.35;;;;;;;18.72;65.07;100248.97;10383397;28;20049;-61
2021/07/03 00:59:11;;;;;;;8.82;7.85;;;;;;;18.68;65.22;100248.44;10381027;28;20478;-62
2021/07/03 01:04:12;;;;;;;9.98;8.20;;;;;;;18.63;65.19;100234.69;10378587;28;20251;-61
2021/07/03 01:09:13;;;;;;;9.32;7.30;;;;;;;18.60;65.34;100247.66;10381397;28;20046;-61
2021/07/03 01:14:15;;;;;;;8.52;7.40;;;;;;;18.56;65.28;100249.88;10382160;28;20517;-63
2021/07/03 01:19:17;;;;;;;7.57;6.72;;;;;;;18.54;65.45;100265.38;10381440;28;20049;-61
2021/07/03 01:24:22;;;;;;;8.25;7.43;;;;;;;18.52;65.19;100270.09;10382551;28;20556;-62
2021/07/03 01:29:25;;;;;;;8.05;7.20;;;;;;;18.51;65.45;100271.97;10382514;28;20049;-63
2021/07/03 01:34:29;;;;;;;8.70;7.57;;;;;;;18.49;65.37;100265.06;10382261;28;20048;-63
2021/07/03 01:39:30;;;;;;;8.38;7.40;;;;;;;18.35;65.49;100259.38;10381485;28;20052;-63
2021/07/03 01:44:32;;;;;;;11.18;7.90;;;;;;;18.36;66.02;100266.47;10381542;28;20501;-62
2021/07/03 01:49:41;;;;;;;9.18;7.60;;;;;;;18.30;65.56;100261.78;10380131;28;20049;-63
2021/07/03 01:54:43;;;;;;;8.65;7.75;;;;;;;18.24;65.64;100262.47;10362917;28;20053;-62
2021/07/03 01:59:45;;;;;;;8.40;7.60;;;;;;;18.25;66.02;100252.53;10375231;28;20065;-62
2021/07/03 02:04:46;;;;;;;12.20;7.75;;;;;;;18.14;66.21;100256.44;10375687;28;20088;-62
2021/07/03 02:09:48;;;;;;;9.23;7.85;;;;;;;18.13;66.51;100249.34;10379227;28;20042;-64
2021/07/03 02:14:50;;;;;;;9.35;7.72;;;;;;;18.17;66.51;100246.13;10380593;28;20049;-62
2021/07/03 02:19:51;;;;;;;8.52;7.60;;;;;;;18.09;66.84;100243.47;10379497;28;20486;-62
2021/07/03 02:24:53;;;;;;;8.68;7.45;;;;;;;18.11;66.67;100246.84;10373521;28;20049;-62
2021/07/03 02:29:54;;;;;;;8.93;8.02;;;;;;;18.03;66.63;100249.56;10371734;28;20049;-62
2021/07/03 02:34:56;;;;;;;10.10;8.30;;;;;;;17.95;67.37;100250.41;10380349;28;20046;-62
2021/07/03 02:39:57;;;;;;;10.07;8.80;;;;;;;17.89;67.61;100253.78;10376416;28;20049;-63
2021/07/03 02:44:59;;;;;;;10.27;8.90;;;;;;;17.84;67.85;100248.06;10381738;28;20048;-63
2021/07/03 02:50:00;;;;;;;10.20;8.68;;;;;;;17.87;67.89;100249.56;10388061;28;20042;-63
2021/07/03 02:55:03;;;;;;;8.98;8.10;;;;;;;17.89;67.64;100251.09;10384086;28;20042;-62
2021/07/03 03:00:08;;;;;;;8.60;7.75;;;;;;;17.91;67.48;100259.84;10380593;28;20056;-63
2021/07/03 03:05:12;;;;;;;10.25;8.38;;;;;;;17.88;68.00;100254.78;10382263;28;20465;-63
2021/07/03 03:10:17;;;;;;;11.13;8.43;;;;;;;17.79;68.16;100248.56;10380899;28;20049;-62
2021/07/03 03:15:19;;;;;;;9.55;8.60;;;;;;;17.74;68.36;100258.16;10386088;28;20426;-62
2021/07/03 03:20:23;;;;;;;10.68;7.70;;;;;;;17.69;68.27;100257.84;10385698;28;20274;-63
2021/07/03 03:25:24;;;;;;;7.80;6.75;;;;;;;17.61;68.32;100248.75;10374328;28;20084;-62
2021/07/03 03:30:26;;;;;;;7.18;5.93;;;;;;;17.60;68.33;100251.63;10385115;28;20053;-62
2021/07/03 03:35:27;;;;;;;10.43;7.35;;;;;;;17.57;68.36;100260.88;10378753;28;20754;-62
2021/07/03 03:40:29;;;;;;;9.60;6.65;;;;;;;17.52;68.33;100257.84;10386515;28;20076;-62
2021/07/03 03:45:31;;;;;;;6.78;6.18;;;;;;;17.52;68.14;100260.53;10386812;28;20045;-62
2021/07/03 03:50:33;;;;;;;7.85;5.88;;;;;;;17.53;67.93;100262.19;10384109;28;20057;-63
2021/07/03 03:55:35;;;;;;;7.75;6.32;;;;;;;17.54;67.92;100263.91;10386019;28;20805;-62
2021/07/03 04:00:36;;;;;;;6.95;6.25;;;;;;;17.56;67.87;100248.41;10373646;28;20076;-62
2021/07/03 04:05:38;;;;;;;9.02;7.32;;;;;;;17.62;67.71;100258.50;10371073;28;20064;-62
2021/07/03 04:10:39;;;;;;;7.95;6.63;;;;;;;17.62;67.76;100261.19;10370642;28;20088;-62
2021/07/03 04:15:41;;;;;;;7.65;6.50;;;;;;;17.70;67.05;100267.56;10381367;28;20056;-62
2021/07/03 04:20:42;;;;;;;7.55;6.60;;;;;;;17.69;67.31;100263.22;10378313;28;20057;-62
2021/07/03 04:25:44;;;;;;;8.35;6.47;;;;;;;17.72;66.97;100257.50;10375325;28;20489;-62
2021/07/03 04:30:46;;;;;;;10.77;6.75;;;;;;;17.66;67.15;100262.53;10380969;28;20070;-62
2021/07/03 04:35:47;;;;;;;8.88;7.20;;;;;;;17.61;68.00;100259.53;10378716;28;20060;-62
2021/07/03 04:40:49;;;;;;;9.57;7.97;;;;;;;17.50;68.49;100273.31;10384145;28;20098;-63
2021/07/03 04:45:50;;;;;;;7.22;6.53;;;;;;;17.47;68.63;100265.56;10383171;28;20065;-62
2021/07/03 04:50:52;;;;;;;7.85;6.97;;;;;;;17.41;68.69;100263.56;10381975;28;20053;-62
2021/07/03 04:55:54;;;;;;;9.18;7.22;;;;;;;17.47;68.78;100260.19;10381514;28;22718;-66
2021/07/03 05:00:55;;;;;;;8.27;6.68;;;;;;;17.48;69.01;100254.63;10382934;28;20067;-63
2021/07/03 05:05:57;;;;;;;8.73;7.35;;;;;;;17.52;68.72;100252.47;10376995;28;20103;-62
2021/07/03 05:10:58;;;;;;;8.15;6.85;;;;;;;17.53;68.74;100248.75;10380697;28;20049;-61
2021/07/03 05:16:00;;;;;;;9.55;7.72;;;;;;;17.59;68.67;100256.13;10379806;28;20053;-62
2021/07/03 05:21:02;;;;;;;9.32;7.28;;;;;;;17.63;68.27;100243.19;10382616;28;20473;-62
2021/07/03 05:26:04;;;;;;;7.80;7.00;;;;;;;17.66;67.84;100235.63;10375015;28;20045;-61
2021/07/03 05:31:05;;;;;;;9.02;6.43;;;;;;;17.71;67.97;100239.66;10381758;28;20413;-62
2021/07/03 05:36:07;;;;;;;9.02;7.28;;;;;;;17.81;67.76;100245.69;10382374;28;20100;-63
2021/07/03 05:41:10;;;;;;;8.18;6.43;;;;;;;17.95;67.57;100247.72;10383015;28;20045;-61
2021/07/03 05:46:12;;;;;;;8.48;6.72;;;;;;;18.08;67.29;100255.25;10381925;28;20053;-62
2021/07/03 05:51:14;;;;;;;6.90;6.22;;;;;;;18.19;67.10;100248.66;10382066;28;20038;-62
2021/07/03 05:56:16;;;;;;;9.60;6.88;;;;;;;18.25;66.18;100250.66;10381503;28;20072;-63
2021/07/03 06:01:17;;;;;;;9.13;8.23;;;;;;;18.30;66.06;100252.81;10382028;28;20358;-62
2021/07/03 06:06:19;;;;;;;9.07;7.18;;;;;;;18.41;66.33;100254.31;10377175;28;20046;-62
2021/07/03 06:11:21;;;;;;;8.20;7.28;;;;;;;18.50;65.03;100259.50;10380369;28;20049;-62
2021/07/03 06:16:23;;;;;;;9.20;7.88;;;;;;;18.63;65.32;100255.38;10379137;28;20053;-63
2021/07/03 06:21:24;;;;;;;8.52;7.35;;;;;;;18.69;64.59;100243.88;10387269;28;20107;-62
2021/07/03 06:26:26;;;;;;;9.55;8.07;;;;;;;18.83;65.27;100253.09;10385771;28;20675;-62
2021/07/03 06:31:27;;;;;;;10.00;8.45;;;;;;;18.96;64.27;100253.41;10383127;28;20502;-61
2021/07/03 06:36:30;;;;;;;10.27;9.27;;;;;;;18.97;64.46;100260.44;10383136;28;20132;-61
2021/07/03 06:41:31;;;;;;;9.82;8.23;;;;;;;19.12;64.21;100248.91;10383379;28;20050;-61
2021/07/03 06:46:33;;;;;;;10.35;9.13;;;;;;;19.31;64.11;100237.63;10388294;28;20049;-61
2021/07/03 06:51:35;;;;;;;9.45;8.13;;;;;;;19.52;63.36;100233.41;10382702;28;20132;-61
2021/07/03 06:56:37;;;;;;;9.98;8.40;;;;;;;19.73;63.05;100230.81;10382198;28;20433;-61
2021/07/03 07:01:38;;;;;;;9.90;8.43;;;;;;;19.83;62.63;100224.34;10385863;28;20515;-61
2021/07/03 07:06:40;;;;;;;10.93;8.88;;;;;;;20.07;62.29;100221.41;10388177;28;20045;-61
2021/07/03 07:11:42;;;;;;;9.25;8.00;;;;;;;20.22;61.48;100223.22;10382944;28;20053;-62
2021/07/03 07:16:43;;;;;;;11.35;9.07;;;;;;;20.30;61.20;100228.56;10386846;28;20047;-61
2021/07/03 07:21:45;;;;;;;11.75;9.65;;;;;;;20.43;61.32;100223.31;10388466;28;20085;-60
2021/07/03 07:26:47;;;;;;;10.00;8.32;;;;;;;20.61;61.32;100227.47;10394197;28;20056;-62
2021/07/03 07:31:49;;;;;;;9.93;8.80;;;;;;;20.92;60.20;100231.81;10382816;28;20057;-61
2021/07/03 07:36:51;;;;;;;10.53;9.03;;;;;;;21.05;59.76;100221.13;10381903;28;20060;-62
2021/07/03 07:41:52;;;;;;;10.85;9.75;;;;;;;21.18;59.18;100225.81;10386141;28;20045;-62
2021/07/03 07:46:54;;;;;;;11.55;9.40;;;;;;;21.30;59.26;100223.44;10386359;28;20048;-61
2021/07/03 07:51:56;;;;;;;13.40;9.35;;;;;;;21.61;58.64;100224.97;10383048;28;20526;-61
2021/07/03 07:56:59;;;;;;;13.02;10.05;;;;;;;21.65;58.00;100210.84;10384524;28;20054;-61
2021/07/03 08:02:00;;;;;;;11.40;10.18;;;;;;;21.73;57.69;100200.88;10379283;28;20129;-61
2021/07/03 08:07:02;;;;;;;11.50;9.32;;;;;;;21.80;57.89;100201.75;10408149;22;20295;-56
2021/07/03 08:12:04;;;;;;;9.57;8.68;;;;;;;21.90;57.32;100204.94;10420177;28;20132;-57
2021/07/03 08:17:06;;;;;;;12.27;9.07;;;;;;;22.38;57.09;100201.47;10417966;28;20053;-56
2021/07/03 08:22:08;;;;;;;12.35;10.00;;;;;;;22.41;55.90;100190.22;10425867;28;20177;-57
2021/07/03 08:27:09;;;;;;;12.57;9.70;;;;;;;22.64;55.83;100191.75;10425258;28;20080;-57
2021/07/03 08:32:11;;;;;;;10.18;9.18;;;;;;;22.94;54.99;100190.38;10425201;28;20056;-58
2021/07/03 08:37:12;;;;;;;11.52;8.70;;;;;;;23.28;54.43;100174.97;10431447;28;20521;-57
2021/07/03 08:42:14;;;;;;;9.23;8.35;;;;;;;23.35;53.52;100169.53;10423905;28;20250;-57
2021/07/03 08:47:17;;;;;;;8.63;7.82;;;;;;;23.43;53.68;100158.44;10419122;28;20048;-57
2021/07/03 08:52:19;;;;;;;;;;;;;;;23.70;53.17;100160.28;10419670;28;20490;-57
2021/07/03 08:57:21;;;;;;;9.48;8.43;;;;;;;23.68;53.73;100151.53;10418151;28;20381;-57
2021/07/03 09:02:33;;;;;;;9.15;8.25;;;;;;;24.13;52.52;100157.91;10424255;28;20045;-57
2021/07/03 09:07:35;;;;;;;9.60;8.43;;;;;;;24.39;50.81;100147.13;10423729;28;20108;-57
2021/07/03 09:12:37;;;;;;;9.55;8.20;;;;;;;24.26;50.17;100137.97;10408199;28;20056;-57
2021/07/03 09:17:51;;;;;;;;;;;;;;;24.06;50.99;100148.09;10418190;28;20610;-57
2021/07/03 09:23:01;;;;;;;9.00;8.10;;;;;;;24.54;51.15;100144.94;10421074;28;19939;-58
2021/07/03 09:28:05;;;;;;;9.00;7.65;;;;;;;25.16;50.19;100136.16;10424086;28;20145;-58
2021/07/03 09:33:07;;;;;;;9.13;8.30;;;;;;;25.54;47.48;100143.41;10415679;28;20418;-58
2021/07/03 09:38:09;;;;;;;9.93;7.22;;;;;;;25.86;47.64;100130.44;10419465;28;20806;-56
2021/07/03 09:43:12;;;;;;;7.88;7.15;;;;;;;25.80;45.90;100119.63;10413065;28;20045;-56
2021/07/03 09:48:13;;;;;;;7.00;6.22;;;;;;;25.86;45.55;100125.00;10421512;28;20045;-56
2021/07/03 09:53:15;;;;;;;6.32;5.70;;;;;;;26.17;44.77;100125.91;10428719;28;20118;-59
2021/07/03 09:58:16;;;;;;;7.18;6.47;;;;;;;26.95;42.67;100121.44;10441419;28;20136;-57
2021/07/03 10:03:18;;;;;;;7.22;6.53;;;;;;;27.54;42.03;100111.66;10431405;28;20057;-57
2021/07/03 10:08:21;;;;;;;5.60;5.10;;;;;;;27.65;40.74;100108.91;10425016;28;20056;-57
2021/07/03 10:13:25;;;;;;;6.03;5.43;;;;;;;27.40;38.80;100095.50;10420943;28;20060;-57
2021/07/03 10:18:26;;;;;;;6.18;5.60;;;;;;;27.36;38.67;100105.22;10424083;28;20080;-58
2021/07/03 10:23:39;;;;;;;5.95;5.30;;;;;;;27.19;40.27;100087.84;10422148;28;20044;-58
2021/07/03 10:28:42;;;;;;;5.78;5.28;;;;;;;27.91;38.81;100081.25;10419347;28;20037;-57
2021/07/03 10:33:49;;;;;;;6.65;5.70;;;;;;;27.91;38.52;100092.19;10439212;28;20059;-57
2021/07/03 10:38:51;;;;;;;5.80;5.38;;;;;;;27.46;38.63;100067.22;10429714;28;20053;-58
2021/07/03 10:44:10;;;;;;;6.93;5.60;;;;;;;27.87;38.61;100076.25;10429177;28;20080;-57
2021/07/03 10:49:14;;;;;;;6.18;5.13;;;;;;;28.26;39.28;100077.59;10416221;28;20033;-57
2021/07/03 10:54:24;;;;;;;5.40;4.90;;;;;;;28.18;37.49;100073.34;10428009;28;20076;-56
2021/07/03 10:59:28;;;;;;;4.65;4.25;;;;;;;28.49;36.56;100058.28;10419307;28;20142;-57
2021/07/03 11:04:29;;;;;;;6.05;5.07;;;;;;;28.95;33.99;100065.66;10428084;28;20401;-56
2021/07/03 11:09:31;;;;;;;4.23;3.83;;;;;;;29.22;34.34;100043.91;10428104;28;20060;-56
2021/07/03 11:14:33;;;;;;;6.35;4.53;;;;;;;28.81;35.87;100046.81;10425435;28;20061;-57
2021/07/03 11:19:34;;;;;;;4.47;4.07;;;;;;;28.15;36.36;100041.81;10427526;28;20041;-56
2021/07/03 11:24:46;;;;;;;4.43;3.30;;;;;;;27.96;35.82;100041.19;10426242;28;20362;-56
2021/07/03 11:29:48;;;;;;;3.70;3.40;;;;;;;28.80;33.36;100042.41;10427490;28;20043;-56
2021/07/03 11:34:56;;;;;;;3.73;3.07;;;;;;;29.14;31.58;100031.44;10425833;28;20448;-56
2021/07/03 11:39:58;;;;;;;3.90;3.53;;;;;;;29.53;32.75;100027.84;10426837;28;20037;-56
2021/07/03 11:45:01;;;;;;;4.07;3.63;;;;;;;29.81;32.29;100024.09;10423936;28;20048;-56
2021/07/03 11:50:12;;;;;;;3.72;3.33;;;;;;;29.78;32.04;100017.19;10420881;28;20079;-56
2021/07/03 11:55:17;;;;;;;4.20;3.90;;;;;;;29.90;30.56;100017.06;10426026;28;22866;-57
2021/07/03 12:00:27;;;;;;;3.72;3.40;;;;;;;30.01;31.08;100009.81;10423694;28;20040;-57
2021/07/03 12:05:38;;;;;;;3.72;3.15;;;;;;;30.00;31.35;100004.56;10420084;28;20041;-57
2021/07/03 12:11:02;;;;;;;4.20;3.45;;;;;;;29.87;32.00;99995.63;10422971;28;20506;-57
2021/07/03 12:16:07;;;;;;;4.13;3.72;;;;;;;29.68;32.13;99973.22;10417073;28;20045;-56
2021/07/03 12:21:30;;;;;;;3.80;3.45;;;;;;;29.73;31.94;99969.69;10422218;28;20049;-57
2021/07/03 12:26:37;;;;;;;4.90;3.78;;;;;;;29.36;32.00;99973.09;10418903;28;20044;-57
2021/07/03 12:31:41;;;;;;;4.53;4.13;;;;;;;28.97;33.11;99959.38;10417773;28;20045;-57
2021/07/03 12:36:47;;;;;;;4.55;4.15;;;;;;;28.85;32.16;99963.06;10423399;28;20067;-54
2021/07/03 12:41:54;;;;;;;7.47;4.93;;;;;;;28.63;33.54;99957.53;10416302;28;20044;-56
2021/07/03 12:46:58;;;;;;;4.18;3.78;;;;;;;28.84;33.07;99955.94;10413425;28;20048;-55
2021/07/03 12:52:01;;;;;;;4.35;3.80;;;;;;;29.21;33.25;99952.63;10421106;28;20059;-56
2021/07/03 12:57:03;;;;;;;4.65;4.05;;;;;;;29.16;31.78;99949.78;10414864;28;20040;-56
2021/07/03 13:02:11;;;;;;;3.67;3.38;;;;;;;28.87;32.51;99949.97;10424454;28;20060;-61
2021/07/03 13:07:14;;;;;;;7.07;3.92;;;;;;;28.61;33.12;99954.22;10422414;28;20082;-56
2021/07/03 13:12:15;;;;;;;4.72;3.50;;;;;;;28.39;33.23;99945.91;10415030;28;20477;-56
2021/07/03 13:17:17;;;;;;;4.10;3.70;;;;;;;28.16;33.60;99955.91;10418735;28;20661;-56
2021/07/03 13:22:19;;;;;;;3.97;3.67;;;;;;;28.06;33.70;99958.50;10414098;28;20037;-56
2021/07/03 13:27:21;;;;;;;4.23;3.83;;;;;;;28.02;34.19;99943.66;10420980;28;20075;-60
2021/07/03 13:32:22;;;;;;;3.93;3.60;;;;;;;27.96;33.95;99945.44;10423614;28;20053;-56
2021/07/03 13:37:24;;;;;;;4.00;3.63;;;;;;;28.31;34.73;99932.63;10423541;28;20052;-56
2021/07/03 13:42:25;;;;;;;3.30;3.08;;;;;;;28.03;34.77;99918.78;10421483;28;20056;-57
2021/07/03 13:47:27;;;;;;;4.00;3.70;;;;;;;27.76;34.30;99918.53;10417767;28;20059;-56
2021/07/03 13:52:29;;;;;;;4.15;3.75;;;;;;;27.71;34.72;99915.69;10416529;28;20072;-55
2021/07/03 13:57:30;;;;;;;4.43;3.73;;;;;;;27.67;35.46;99920.03;10412487;28;20060;-55
2021/07/03 14:02:32;;;;;;;4.15;3.83;;;;;;;27.80;35.79;99914.25;10435413;28;20060;-55
2021/07/03 14:07:35;;;;;;;4.20;3.73;;;;;;;27.91;35.04;99911.69;10447116;23;20072;-62
2021/07/03 14:12:37;;;;;;;3.72;3.42;;;;;;;27.87;34.56;99909.44;10414742;28;20509;-62
2021/07/03 14:17:39;;;;;;;4.78;3.60;;;;;;;28.01;34.68;99909.16;10417595;28;20091;-62
2021/07/03 14:22:41;;;;;;;4.13;3.80;;;;;;;28.04;34.58;99897.72;10421070;28;20049;-62
2021/07/03 14:27:44;;;;;;;4.00;3.60;;;;;;;27.89;34.65;99897.44;10422693;28;20057;-63
2021/07/03 14:32:45;;;;;;;5.00;4.57;;;;;;;27.91;34.94;99892.53;10417257;28;20422;-63
2021/07/03 14:37:47;;;;;;;3.90;3.60;;;;;;;27.93;35.49;99896.69;10419728;28;20049;-63
2021/07/03 14:42:49;;;;;;;4.70;4.17;;;;;;;28.02;34.93;99894.41;10427863;28;20127;-63
2021/07/03 14:47:50;;;;;;;4.95;3.78;;;;;;;28.10;35.26;99885.78;10428096;28;20052;-61
2021/07/03 14:52:52;;;;;;;5.50;4.03;;;;;;;28.12;36.10;99883.63;10428730;28;20079;-63
2021/07/03 14:57:54;;;;;;;5.45;3.75;;;;;;;28.21;34.88;99893.09;10428224;28;20044;-63
2021/07/03 15:02:55;;;;;;;4.30;3.90;;;;;;;28.12;35.39;99871.84;10428477;28;20521;-69
2021/07/03 15:07:57;;;;;;;5.30;3.90;;;;;;;28.14;35.08;99875.19;10418493;28;20131;-62
2021/07/03 15:12:59;;;;;;;4.57;4.20;;;;;;;28.06;35.18;99875.59;10402655;28;20044;-61
2021/07/03 15:18:00;;;;;;;4.30;3.90;;;;;;;27.98;34.41;99871.34;10426797;28;20130;-64
2021/07/03 15:23:03;;;;;;;4.23;3.83;;;;;;;28.01;35.30;99874.44;10428529;28;20072;-61
2021/07/03 15:28:04;;;;;;;4.03;3.72;;;;;;;28.10;34.79;99868.53;10429750;28;20052;-62
2021/07/03 15:33:06;;;;;;;4.80;4.40;;;;;;;28.11;34.75;99864.75;10419438;28;20098;-61
2021/07/03 15:38:07;;;;;;;4.50;4.10;;;;;;;28.06;34.90;99862.75;10421230;28;20049;-62
2021/07/03 15:43:11;;;;;;;4.78;4.32;;;;;;;27.96;35.15;99852.47;10421809;28;20041;-61
2021/07/03 15:48:12;;;;;;;5.30;4.90;;;;;;;27.79;35.13;99848.84;10426706;28;20435;-61
2021/07/03 15:53:14;;;;;;;5.27;4.50;;;;;;;27.71;35.46;99839.16;10425424;28;20045;-63
2021/07/03 15:58:16;;;;;;;6.47;5.40;;;;;;;27.63;35.32;99831.38;10426595;28;20049;-61
2021/07/03 16:03:17;;;;;;;4.50;4.10;;;;;;;27.67;35.52;99836.09;10423595;28;20159;-67
2021/07/03 16:08:19;;;;;;;4.38;3.88;;;;;;;27.73;35.30;99815.16;10426115;28;20045;-61
2021/07/03 16:13:20;;;;;;;5.03;4.57;;;;;;;27.67;35.29;99811.50;10424323;28;20045;-62
2021/07/03 16:18:22;;;;;;;5.00;4.22;;;;;;;27.70;35.87;99818.38;10424498;28;20041;-62
2021/07/03 16:23:24;;;;;;;4.50;3.90;;;;;;;27.63;35.26;99825.91;10419564;28;20045;-63
2021/07/03 16:28:25;;;;;;;4.90;4.28;;;;;;;27.57;35.34;99813.22;10424148;28;20060;-65
2021/07/03 16:33:27;;;;;;;4.45;4.05;;;;;;;27.54;36.02;99809.06;10424299;28;20061;-62
2021/07/03 16:38:28;;;;;;;5.68;4.05;;;;;;;27.54;36.49;99813.72;10423410;28;20064;-67
2021/07/03 16:43:30;;;;;;;5.13;4.00;;;;;;;27.40;36.03;99811.28;10424069;28;20132;-62
2021/07/03 16:48:32;;;;;;;4.53;4.05;;;;;;;27.29;36.58;99806.66;10423922;28;20049;-62
2021/07/03 16:53:33;;;;;;;6.50;4.35;;;;;;;27.30;36.67;99805.59;10423072;28;20049;-62
2021/07/03 16:58:35;;;;;;;6.22;5.03;;;;;;;27.19;36.92;99801.00;10426722;28;20045;-62
2021/07/03 17:03:37;;;;;;;5.55;4.40;;;;;;;27.11;36.56;99794.88;10417844;28;20052;-63
2021/07/03 17:08:38;;;;;;;4.53;4.13;;;;;;;27.05;37.14;99804.03;10404239;28;20063;-62
2021/07/03 17:13:40;;;;;;;4.90;4.40;;;;;;;27.02;37.47;99804.50;10423884;28;20045;-62
2021/07/03 17:18:41;;;;;;;5.05;4.65;;;;;;;27.04;36.73;99802.41;10421899;28;20049;-61
2021/07/03 17:23:43;;;;;;;4.82;4.43;;;;;;;26.96;37.34;99809.06;10422534;28;20045;-61
2021/07/03 17:28:44;;;;;;;5.00;4.60;;;;;;;26.90;36.81;99806.47;10421956;28;20049;-61
2021/07/03 17:33:46;;;;;;;4.90;4.40;;;;;;;26.85;37.94;99809.94;10422444;28;20059;-62
2021/07/03 17:38:47;;;;;;;8.27;6.13;;;;;;;26.75;38.09;99801.53;10418402;28;20136;-62
2021/07/03 17:43:49;;;;;;;5.50;5.00;;;;;;;26.73;37.92;99800.94;10404538;28;20041;-62
2021/07/03 17:48:51;;;;;;;8.15;6.60;;;;;;;26.67;38.16;99799.19;10410806;28;22188;-62
2021/07/03 17:53:52;;;;;;;9.13;8.23;;;;;;;26.63;38.45;99796.06;10422459;28;20045;-62
2021/07/03 17:58:54;;;;;;;9.00;8.20;;;;;;;26.56;38.48;99795.38;10421296;28;20052;-62
2021/07/03 18:03:55;;;;;;;6.72;6.03;;;;;;;26.54;38.79;99800.22;10421958;28;20052;-61
2021/07/03 18:08:57;;;;;;;5.45;4.93;;;;;;;26.49;38.99;99800.94;10421578;28;20085;-62
2021/07/03 18:13:58;;;;;;;6.25;5.70;;;;;;;26.43;39.09;99791.81;10424723;28;20045;-61
2021/07/03 18:19:00;;;;;;;7.53;5.60;;;;;;;26.41;39.59;99793.97;10430373;28;20052;-61
2021/07/03 18:24:03;;;;;;;7.68;6.15;;;;;;;26.37;39.44;99792.78;10429188;28;20059;-62
2021/07/03 18:29:04;;;;;;;;;;;;;;;26.30;39.23;99789.34;10428650;28;20132;-62
2021/07/03 18:34:06;;;;;;;5.80;5.30;;;;;;;26.21;39.54;99788.03;10426030;28;19927;-61
2021/07/03 18:39:08;;;;;;;5.45;4.95;;;;;;;26.17;39.58;99786.88;10425652;28;20690;-61
2021/07/03 18:44:10;;;;;;;6.53;5.60;;;;;;;26.08;40.06;99784.50;10429454;28;20071;-61
2021/07/03 18:49:12;;;;;;;6.50;5.38;;;;;;;26.09;40.17;99780.72;10427082;28;20052;-62
2021/07/03 18:54:14;;;;;;;5.40;4.90;;;;;;;26.11;39.67;99781.28;10423763;28;20056;-62
2021/07/03 18:59:15;;;;;;;5.95;5.22;;;;;;;26.04;40.02;99777.84;10431342;28;20524;-62
2021/07/03 19:04:18;;;;;;;5.75;5.03;;;;;;;25.95;40.62;99776.53;10429770;28;20045;-61
2021/07/03 19:09:19;;;;;;;5.75;5.25;;;;;;;25.87;41.09;99776.88;10428447;28;20570;-62
2021/07/03 19:14:21;;;;;;;6.28;5.63;;;;;;;25.77;41.65;99772.00;10428960;28;20052;-62
2021/07/03 19:19:23;;;;;;;5.95;5.45;;;;;;;25.69;41.56;99770.47;10426706;28;20124;-61
2021/07/03 19:24:24;;;;;;;7.25;5.97;;;;;;;25.57;41.73;99772.34;10427760;28;20057;-61
2021/07/03 19:29:26;;;;;;;6.40;5.80;;;;;;;25.45;41.95;99785.13;10426844;28;20055;-63
2021/07/03 19:34:27;;;;;;;6.30;5.72;;;;;;;25.33;41.78;99776.91;10427479;28;20117;-62
2021/07/03 19:39:29;;;;;;;6.13;5.53;;;;;;;25.21;41.86;99774.94;10427451;28;20382;-63
2021/07/03 19:44:30;;;;;;;8.50;7.30;;;;;;;25.10;42.60;99785.78;10427039;28;20052;-63
2021/07/03 19:49:32;;;;;;;8.18;6.95;;;;;;;25.00;43.13;99784.44;10426996;28;20059;-63
2021/07/03 19:54:34;;;;;;;6.70;6.00;;;;;;;24.89;42.80;99785.19;10427572;28;20041;-61
2021/07/03 19:59:35;;;;;;;6.60;6.03;;;;;;;24.81;42.81;99796.41;10423699;28;20052;-61
2021/07/03 20:04:37;;;;;;;7.43;6.28;;;;;;;24.74;43.19;99795.66;10423625;28;20052;-62
2021/07/03 20:09:39;;;;;;;6.70;6.00;;;;;;;24.67;43.21;99796.56;10426485;22;20456;-64
2021/07/03 20:14:40;;;;;;;6.18;5.57;;;;;;;24.59;44.02;99802.34;10427353;28;20047;-63
2021/07/03 20:19:42;;;;;;;8.00;6.00;;;;;;;24.54;44.60;99802.13;10429075;28;20051;-63
2021/07/03 20:24:43;;;;;;;7.07;6.47;;;;;;;24.42;44.68;99782.19;10428451;28;20060;-62
2021/07/03 20:29:45;;;;;;;6.90;6.30;;;;;;;24.38;45.29;99791.84;10429707;28;20048;-61
2021/07/03 20:34:47;;;;;;;7.60;6.95;;;;;;;24.31;45.43;99798.19;10417100;28;20280;-61
2021/07/03 20:39:48;;;;;;;7.82;7.13;;;;;;;24.22;46.04;99782.41;10430812;28;20533;-62
2021/07/03 20:44:50;;;;;;;8.57;7.75;;;;;;;24.20;46.48;99803.53;10419781;28;20053;-62
2021/07/03 20:49:51;;;;;;;9.60;8.27;;;;;;;24.14;46.54;99805.25;10426535;28;20049;-62
2021/07/03 20:54:53;;;;;;;9.65;8.75;;;;;;;24.12;47.06;99805.47;10419089;28;20243;-61
2021/07/03 20:59:55;;;;;;;11.38;10.30;;;;;;;24.06;47.48;99806.38;10417346;28;20628;-65
2021/07/03 21:04:56;;;;;;;11.38;10.18;;;;;;;23.87;47.95;99801.94;10426830;28;20524;-63
2021/07/03 21:09:58;;;;;;;9.63;8.82;;;;;;;23.86;48.13;99800.31;10426214;28;20045;-63
2021/07/03 21:15:00;;;;;;;10.77;9.32;;;;;;;23.86;48.05;99792.97;10426130;28;20048;-64
2021/07/03 21:20:06;;;;;;;9.48;8.57;;;;;;;23.89;47.65;99795.25;10412374;28;20252;-63
2021/07/03 21:25:09;;;;;;;8.73;7.93;;;;;;;23.92;48.14;99788.53;10410767;28;20653;-64
2021/07/03 21:30:13;;;;;;;;;;;;;;;23.96;48.93;99790.59;10422474;28;20041;-65
2021/07/03 21:35:16;;;;;;;11.43;10.32;;;;;;;23.91;48.24;99787.69;10420285;28;19921;-62
2021/07/03 21:40:20;;;;;;;9.52;8.63;;;;;;;23.91;48.75;99787.69;10420516;28;20566;-62
2021/07/03 21:45:22;;;;;;;10.45;9.43;;;;;;;23.91;48.83;99786.88;10411841;28;20041;-63
2021/07/03 21:50:23;;;;;;;10.32;9.30;;;;;;;23.88;49.23;99785.44;10417525;28;20522;-63
2021/07/03 21:55:25;;;;;;;9.73;8.77;;;;;;;23.88;49.11;99792.75;10422511;28;20551;-62
2021/07/03 22:00:42;;;;;;;9.98;9.02;;;;;;;23.83;49.23;99796.13;10422743;28;20045;-61
2021/07/03 22:05:46;;;;;;;8.88;8.07;;;;;;;23.73;49.66;99790.34;10420534;28;20041;-61
2021/07/03 22:10:50;;;;;;;8.25;6.88;;;;;;;23.74;49.86;99786.56;10422123;28;20136;-63
2021/07/03 22:15:56;;;;;;;8.68;7.93;;;;;;;23.75;50.15;99782.78;10421380;28;20049;-62
2021/07/03 22:21:01;;;;;;;9.80;8.90;;;;;;;23.67;50.91;99772.22;10413796;28;20052;-62
2021/07/03 22:26:03;;;;;;;9.02;8.15;;;;;;;23.59;51.18;99763.28;10420260;28;20556;-64
2021/07/03 22:31:06;;;;;;;10.48;9.38;;;;;;;23.61;52.00;99772.03;10423371;28;20048;-63
2021/07/03 22:36:08;;;;;;;9.17;8.37;;;;;;;23.51;53.03;99771.72;10414180;28;20056;-63
2021/07/03 22:41:10;;;;;;;10.30;9.13;;;;;;;23.36;53.59;99765.72;10424072;28;20045;-63
2021/07/03 22:46:14;;;;;;;12.02;8.52;;;;;;;23.36;53.59;99773.88;10417170;28;20045;-61
2021/07/03 22:51:16;;;;;;;9.70;8.82;;;;;;;23.32;54.16;99797.13;10429575;28;20048;-62
2021/07/03 22:56:17;;;;;;;8.95;8.05;;;;;;;23.08;54.15;99797.63;10428954;28;20057;-61
2021/07/03 23:01:19;;;;;;;6.53;6.03;;;;;;;23.00;53.11;99788.88;10429104;28;20061;-61
2021/07/03 23:06:21;;;;;;;5.43;4.70;;;;;;;22.95;52.94;99801.25;10434566;28;20049;-61
2021/07/03 23:11:23;;;;;;;5.50;4.95;;;;;;;22.94;53.03;99798.75;10432602;28;20056;-62
2021/07/03 23:16:24;;;;;;;5.82;5.20;;;;;;;23.01;53.49;99798.69;10441352;28;20056;-62
2021/07/03 23:21:26;;;;;;;5.93;5.43;;;;;;;22.99;53.19;99798.09;10441783;28;20106;-62